sensor_id;sensor_type;location;lat;lon;timestamp;pressure;altitude;pressure_sealevel;temperature;humidity
62510;BME280;48558;48.242;11.654;2023-02-19T00:02:16;96690.25;;;10.88;100.00
62510;BME280;48558;48.242;11.654;2023-02-19T00:06:30;96682.59;;;10.83;100.00
62510;BME280;48558;48.242;11.654;2023-02-19T00:10:43;96688.59;;;10.91;100.00
62510;BME280;48558;48.242;11.654;2023-02-19T00:14:57;96672.53;;;10.67;100.00
62510;BME280;48558;48.242;11.654;2023-02-19T00:19:20;96670.28;;;10.84;100.00
62510;BME280;48558;48.242;11.654;2023-02-19T00:23:32;96671.97;;;10.81;100.00
62510;BME280;48558;48.242;11.654;2023-02-19T00:27:45;96666.00;;;10.83;100.00
62510;BME280;48558;48.242;11.654;2023-02-19T00:31:57;96670.59;;;10.86;100.00
62510;BME280;48558;48.242;11.654;2023-02-19T00:36:11;96638.00;;;10.72;100.00
62510;BME280;48558;48.242;11.654;2023-02-19T00:40:24;96654.63;;;10.90;100.00
62510;BME280;48558;48.242;11.654;2023-02-19T00:44:37;96647.53;;;10.71;100.00
62510;BME280;48558;48.242;11.654;2023-02-19T00:48:49;96637.88;;;10.75;100.00
62510;BME280;48558;48.242;11.654;2023-02-19T00:53:03;96632.19;;;10.79;100.00
62510;BME280;48558;48.242;11.654;2023-02-19T00:57:16;96639.25;;;10.80;100.00
62510;BME280;48558;48.242;11.654;2023-02-19T01:01:28;96628.47;;;10.73;100.00
62510;BME280;48558;48.242;11.654;2023-02-19T01:05:41;96621.88;;;10.70;100.00
62510;BME280;48558;48.242;11.654;2023-02-19T01:09:53;96578.06;;;10.51;100.00
62510;BME280;48558;48.242;11.654;2023-02-19T01:14:06;96628.69;;;10.88;100.00
62510;BME280;48558;48.242;11.654;2023-02-19T01:18:18;96630.34;;;10.76;100.00
62510;BME280;48558;48.242;11.654;2023-02-19T01:22:31;96619.47;;;10.91;100.00
62510;BME280;48558;48.242;11.654;2023-02-19T01:26:43;96613.13;;;10.81;100.00
62510;BME280;48558;48.242;11.654;2023-02-19T01:31:00;96625.94;;;10.88;100.00
62510;BME280;48558;48.242;11.654;2023-02-19T01:35:17;96615.81;;;10.94;100.00
62510;BME280;48558;48.242;11.654;2023-02-19T01:39:29;96613.50;;;10.92;100.00
62510;BME280;48558;48.242;11.654;2023-02-19T01:44:06;96596.75;;;10.96;100.00
62510;BME280;48558;48.242;11.654;2023-02-19T01:48:22;96590.25;;;10.71;100.00
62510;BME280;48558;48.242;11.654;2023-02-19T01:52:37;96592.88;;;10.84;100.00
62510;BME280;48558;48.242;11.654;2023-02-19T01:56:50;96593.19;;;10.86;100.00
62510;BME280;48558;48.242;11.654;2023-02-19T02:01:06;96590.13;;;10.84;100.00
62510;BME280;48558;48.242;11.654;2023-02-19T02:05:27;96591.38;;;10.83;100.00
62510;BME280;48558;48.242;11.654;2023-02-19T02:09:46;96573.81;;;10.77;100.00
62510;BME280;48558;48.242;11.654;2023-02-19T02:14:20;96571.84;;;10.87;100.00
62510;BME280;48558;48.242;11.654;2023-02-19T02:23:55;96575.22;;;10.81;100.00
62510;BME280;48558;48.242;11.654;2023-02-19T02:32:39;96549.53;;;10.72;100.00
62510;BME280;48558;48.242;11.654;2023-02-19T02:37:04;96553.69;;;10.76;100.00
62510;BME280;48558;48.242;11.654;2023-02-19T02:41:20;96540.47;;;10.62;100.00
62510;BME280;48558;48.242;11.654;2023-02-19T02:45:33;96538.81;;;10.65;100.00
62510;BME280;48558;48.242;11.654;2023-02-19T02:49:49;96545.72;;;10.69;100.00
62510;BME280;48558;48.242;11.654;2023-02-19T02:58:52;96516.50;;;10.50;100.00
62510;BME280;48558;48.242;11.654;2023-02-19T03:03:07;96503.72;;;10.35;100.00
62510;BME280;48558;48.242;11.654;2023-02-19T03:07:20;96509.41;;;10.31;100.00
62510;BME280;48558;48.242;11.654;2023-02-19T03:11:34;96529.34;;;10.04;100.00
62510;BME280;48558;48.242;11.654;2023-02-19T03:16:14;96513.78;;;9.58;100.00
62510;BME280;48558;48.242;11.654;2023-02-19T03:20:50;96531.75;;;9.19;100.00
62510;BME280;48558;48.242;11.654;2023-02-19T03:25:13;96517.88;;;9.10;100.00
62510;BME280;48558;48.242;11.654;2023-02-19T03:29:49;96512.63;;;9.03;100.00
62510;BME280;48558;48.242;11.654;2023-02-19T03:34:08;96510.03;;;8.87;100.00
62510;BME280;48558;48.242;11.654;2023-02-19T03:38:27;96519.78;;;9.01;100.00
62510;BME280;48558;48.242;11.654;2023-02-19T03:43:08;96522.78;;;8.94;100.00
62510;BME280;48558;48.242;11.654;2023-02-19T03:47:32;96511.81;;;8.81;100.00
62510;BME280;48558;48.242;11.654;2023-02-19T03:51:56;96514.69;;;8.78;100.00
62510;BME280;48558;48.242;11.654;2023-02-19T03:56:32;96509.78;;;8.73;100.00
62510;BME280;48558;48.242;11.654;2023-02-19T04:00:58;96524.19;;;8.77;100.00
62510;BME280;48558;48.242;11.654;2023-02-19T04:05:18;96528.22;;;8.85;100.00
62510;BME280;48558;48.242;11.654;2023-02-19T04:09:41;96526.81;;;8.80;100.00
62510;BME280;48558;48.242;11.654;2023-02-19T04:18:24;96500.28;;;8.74;100.00
62510;BME280;48558;48.242;11.654;2023-02-19T04:22:40;96515.16;;;8.76;100.00
62510;BME280;48558;48.242;11.654;2023-02-19T04:26:53;96532.44;;;8.77;100.00
62510;BME280;48558;48.242;11.654;2023-02-19T04:31:07;96521.44;;;8.77;100.00
62510;BME280;48558;48.242;11.654;2023-02-19T04:35:20;96520.13;;;8.68;100.00
62510;BME280;48558;48.242;11.654;2023-02-19T04:39:41;96530.34;;;8.81;100.00
62510;BME280;48558;48.242;11.654;2023-02-19T04:43:53;96537.19;;;8.76;100.00
62510;BME280;48558;48.242;11.654;2023-02-19T04:48:06;96524.88;;;8.68;100.00
62510;BME280;48558;48.242;11.654;2023-02-19T04:52:18;96523.72;;;8.78;100.00
62510;BME280;48558;48.242;11.654;2023-02-19T04:56:31;96523.53;;;8.73;100.00
62510;BME280;48558;48.242;11.654;2023-02-19T05:00:43;96534.44;;;8.76;100.00
62510;BME280;48558;48.242;11.654;2023-02-19T05:04:56;96536.41;;;8.76;100.00
62510;BME280;48558;48.242;11.654;2023-02-19T05:09:08;96543.47;;;8.77;100.00
62510;BME280;48558;48.242;11.654;2023-02-19T05:13:21;96521.75;;;8.79;100.00
62510;BME280;48558;48.242;11.654;2023-02-19T05:17:33;96537.09;;;8.80;100.00
62510;BME280;48558;48.242;11.654;2023-02-19T05:21:46;96530.03;;;8.79;100.00
62510;BME280;48558;48.242;11.654;2023-02-19T05:26:04;96543.88;;;8.88;100.00
62510;BME280;48558;48.242;11.654;2023-02-19T05:30:17;96562.38;;;8.87;100.00
62510;BME280;48558;48.242;11.654;2023-02-19T05:34:30;96549.06;;;8.86;100.00
62510;BME280;48558;48.242;11.654;2023-02-19T05:38:42;96554.13;;;8.87;100.00
62510;BME280;48558;48.242;11.654;2023-02-19T05:42:55;96561.38;;;8.94;100.00
62510;BME280;48558;48.242;11.654;2023-02-19T05:47:08;96554.91;;;8.88;100.00
62510;BME280;48558;48.242;11.654;2023-02-19T05:51:23;96574.41;;;8.93;100.00
62510;BME280;48558;48.242;11.654;2023-02-19T05:55:36;96570.00;;;8.83;100.00
62510;BME280;48558;48.242;11.654;2023-02-19T05:59:48;96564.38;;;8.87;100.00
62510;BME280;48558;48.242;11.654;2023-02-19T06:04:01;96573.75;;;8.89;100.00
62510;BME280;48558;48.242;11.654;2023-02-19T06:08:14;96573.19;;;8.94;100.00
62510;BME280;48558;48.242;11.654;2023-02-19T06:12:27;96575.41;;;8.87;100.00
62510;BME280;48558;48.242;11.654;2023-02-19T06:16:40;96576.72;;;8.95;100.00
62510;BME280;48558;48.242;11.654;2023-02-19T06:20:53;96581.00;;;8.96;100.00
62510;BME280;48558;48.242;11.654;2023-02-19T06:25:06;96585.44;;;8.93;100.00
62510;BME280;48558;48.242;11.654;2023-02-19T06:29:23;96589.94;;;9.00;100.00
62510;BME280;48558;48.242;11.654;2023-02-19T06:33:45;96581.41;;;9.07;100.00
62510;BME280;48558;48.242;11.654;2023-02-19T06:37:57;96587.50;;;9.02;100.00
62510;BME280;48558;48.242;11.654;2023-02-19T06:42:10;96599.81;;;9.10;100.00
62510;BME280;48558;48.242;11.654;2023-02-19T06:46:22;96613.81;;;9.15;100.00
62510;BME280;48558;48.242;11.654;2023-02-19T06:50:35;96621.50;;;9.20;100.00
62510;BME280;48558;48.242;11.654;2023-02-19T06:54:47;96625.91;;;9.30;100.00
62510;BME280;48558;48.242;11.654;2023-02-19T06:59:14;96634.09;;;9.43;100.00
62510;BME280;48558;48.242;11.654;2023-02-19T07:03:40;96641.19;;;9.44;100.00
62510;BME280;48558;48.242;11.654;2023-02-19T07:07:52;96648.34;;;9.42;100.00
62510;BME280;48558;48.242;11.654;2023-02-19T07:12:05;96648.41;;;9.29;100.00
62510;BME280;48558;48.242;11.654;2023-02-19T07:16:18;96647.31;;;9.26;100.00
62510;BME280;48558;48.242;11.654;2023-02-19T07:20:30;96660.50;;;9.44;100.00
62510;BME280;48558;48.242;11.654;2023-02-19T07:24:43;96643.38;;;9.15;100.00
62510;BME280;48558;48.242;11.654;2023-02-19T07:28:58;96668.59;;;9.26;100.00
62510;BME280;48558;48.242;11.654;2023-02-19T07:33:10;96671.03;;;9.24;100.00
62510;BME280;48558;48.242;11.654;2023-02-19T07:37:23;96683.16;;;9.26;100.00
62510;BME280;48558;48.242;11.654;2023-02-19T07:41:35;96701.34;;;9.11;100.00
62510;BME280;48558;48.242;11.654;2023-02-19T07:45:48;96684.94;;;9.08;100.00
62510;BME280;48558;48.242;11.654;2023-02-19T07:50:01;96707.31;;;9.22;100.00
62510;BME280;48558;48.242;11.654;2023-02-19T07:54:24;96721.88;;;9.10;100.00
62510;BME280;48558;48.242;11.654;2023-02-19T07:58:36;96719.69;;;9.05;100.00
62510;BME280;48558;48.242;11.654;2023-02-19T08:02:49;96746.47;;;9.05;100.00
62510;BME280;48558;48.242;11.654;2023-02-19T08:07:11;96744.72;;;8.86;100.00
62510;BME280;48558;48.242;11.654;2023-02-19T08:11:23;96749.69;;;8.91;100.00
62510;BME280;48558;48.242;11.654;2023-02-19T08:20:32;96741.53;;;9.00;100.00
62510;BME280;48558;48.242;11.654;2023-02-19T08:24:44;96769.09;;;9.12;100.00
62510;BME280;48558;48.242;11.654;2023-02-19T08:28:57;96759.28;;;8.99;100.00
62510;BME280;48558;48.242;11.654;2023-02-19T08:33:17;96763.91;;;9.27;100.00
62510;BME280;48558;48.242;11.654;2023-02-19T08:37:31;96747.31;;;9.39;100.00
62510;BME280;48558;48.242;11.654;2023-02-19T08:41:43;96763.00;;;9.30;100.00
62510;BME280;48558;48.242;11.654;2023-02-19T08:45:56;96764.66;;;9.27;100.00
62510;BME280;48558;48.242;11.654;2023-02-19T08:50:09;96770.91;;;9.53;100.00
62510;BME280;48558;48.242;11.654;2023-02-19T08:54:22;96769.91;;;9.72;100.00
62510;BME280;48558;48.242;11.654;2023-02-19T08:58:35;96795.34;;;9.89;100.00
62510;BME280;48558;48.242;11.654;2023-02-19T09:02:48;96775.31;;;9.63;100.00
62510;BME280;48558;48.242;11.654;2023-02-19T09:07:01;96781.50;;;9.67;100.00
62510;BME280;48558;48.242;11.654;2023-02-19T09:11:14;96802.88;;;10.23;100.00
62510;BME280;48558;48.242;11.654;2023-02-19T09:15:26;96779.03;;;10.59;100.00
62510;BME280;48558;48.242;11.654;2023-02-19T09:19:42;96765.97;;;11.12;100.00
62510;BME280;48558;48.242;11.654;2023-02-19T09:23:55;96806.28;;;10.48;100.00
62510;BME280;48558;48.242;11.654;2023-02-19T09:28:08;96803.34;;;9.74;100.00
62510;BME280;48558;48.242;11.654;2023-02-19T09:32:20;96796.06;;;10.15;100.00
62510;BME280;48558;48.242;11.654;2023-02-19T09:36:33;96800.59;;;10.08;100.00
62510;BME280;48558;48.242;11.654;2023-02-19T09:40:45;96778.53;;;10.73;100.00
62510;BME280;48558;48.242;11.654;2023-02-19T09:44:59;96819.66;;;10.71;100.00
62510;BME280;48558;48.242;11.654;2023-02-19T09:49:16;96808.16;;;10.51;100.00
62510;BME280;48558;48.242;11.654;2023-02-19T09:53:38;96815.44;;;10.58;100.00
62510;BME280;48558;48.242;11.654;2023-02-19T09:57:52;96791.47;;;10.33;100.00
62510;BME280;48558;48.242;11.654;2023-02-19T10:02:21;96815.56;;;10.20;100.00
62510;BME280;48558;48.242;11.654;2023-02-19T10:06:35;96808.72;;;10.25;100.00
62510;BME280;48558;48.242;11.654;2023-02-19T10:10:55;96802.34;;;10.02;100.00
62510;BME280;48558;48.242;11.654;2023-02-19T10:15:16;96821.78;;;10.46;100.00
62510;BME280;48558;48.242;11.654;2023-02-19T10:19:31;96816.19;;;10.37;100.00
62510;BME280;48558;48.242;11.654;2023-02-19T10:23:46;96811.00;;;10.60;100.00
62510;BME280;48558;48.242;11.654;2023-02-19T10:28:01;96828.63;;;10.63;100.00
62510;BME280;48558;48.242;11.654;2023-02-19T10:32:19;96821.00;;;11.19;100.00
62510;BME280;48558;48.242;11.654;2023-02-19T10:36:40;96839.38;;;11.35;100.00
62510;BME280;48558;48.242;11.654;2023-02-19T10:40:59;96841.38;;;11.74;100.00
62510;BME280;48558;48.242;11.654;2023-02-19T10:45:22;96866.25;;;11.34;98.26
62510;BME280;48558;48.242;11.654;2023-02-19T10:49:49;96834.06;;;11.19;100.00
62510;BME280;48558;48.242;11.654;2023-02-19T10:54:19;96845.94;;;11.28;99.59
62510;BME280;48558;48.242;11.654;2023-02-19T10:58:36;96830.75;;;11.33;95.15
62510;BME280;48558;48.242;11.654;2023-02-19T11:07:33;96838.81;;;10.88;99.03
62510;BME280;48558;48.242;11.654;2023-02-19T11:11:57;96822.41;;;11.24;92.50
62510;BME280;48558;48.242;11.654;2023-02-19T11:16:10;96816.91;;;11.33;93.50
62510;BME280;48558;48.242;11.654;2023-02-19T11:20:23;96810.81;;;11.07;93.50
62510;BME280;48558;48.242;11.654;2023-02-19T11:24:37;96813.97;;;10.97;95.58
62510;BME280;48558;48.242;11.654;2023-02-19T11:28:59;96815.19;;;11.26;97.10
62510;BME280;48558;48.242;11.654;2023-02-19T11:37:28;96814.38;;;11.57;92.23
62510;BME280;48558;48.242;11.654;2023-02-19T11:56:36;96821.22;;;11.03;82.83
62510;BME280;48558;48.242;11.654;2023-02-19T12:19:43;96832.81;;;11.50;100.00
62510;BME280;48558;48.242;11.654;2023-02-19T12:38:49;96870.19;;;10.94;99.97
62510;BME280;48558;48.242;11.654;2023-02-19T12:43:22;96864.75;;;10.90;91.58
62510;BME280;48558;48.242;11.654;2023-02-19T12:47:39;96872.06;;;10.41;100.00
62510;BME280;48558;48.242;11.654;2023-02-19T12:51:59;96867.06;;;10.27;100.00
62510;BME280;48558;48.242;11.654;2023-02-19T12:56:26;96870.53;;;10.40;97.65
62510;BME280;48558;48.242;11.654;2023-02-19T13:00:52;96876.31;;;10.33;96.88
62510;BME280;48558;48.242;11.654;2023-02-19T13:05:34;96856.16;;;10.66;90.26
62510;BME280;48558;48.242;11.654;2023-02-19T13:10:15;96865.78;;;10.83;87.43
62510;BME280;48558;48.242;11.654;2023-02-19T13:15:03;96863.53;;;11.43;85.73
62510;BME280;48558;48.242;11.654;2023-02-19T13:19:24;96864.22;;;11.26;90.58
62510;BME280;48558;48.242;11.654;2023-02-19T13:23:40;96861.63;;;11.01;91.26
62510;BME280;48558;48.242;11.654;2023-02-19T13:33:17;96858.81;;;11.22;92.63
62510;BME280;48558;48.242;11.654;2023-02-19T13:37:38;96850.19;;;10.90;97.59
62510;BME280;48558;48.242;11.654;2023-02-19T13:41:55;96866.72;;;10.80;100.00
62510;BME280;48558;48.242;11.654;2023-02-19T13:46:13;96840.28;;;10.79;100.00
62510;BME280;48558;48.242;11.654;2023-02-19T13:50:30;96861.88;;;10.50;100.00
62510;BME280;48558;48.242;11.654;2023-02-19T13:54:43;96862.78;;;10.91;100.00
62510;BME280;48558;48.242;11.654;2023-02-19T14:03:27;96837.00;;;10.72;100.00
62510;BME280;48558;48.242;11.654;2023-02-19T14:07:51;96839.44;;;10.48;100.00
62510;BME280;48558;48.242;11.654;2023-02-19T14:21:22;96854.22;;;10.33;100.00
62510;BME280;48558;48.242;11.654;2023-02-19T14:25:56;96874.41;;;10.64;100.00
62510;BME280;48558;48.242;11.654;2023-02-19T14:30:12;96873.38;;;10.49;100.00
62510;BME280;48558;48.242;11.654;2023-02-19T14:34:25;96869.38;;;10.50;100.00
62510;BME280;48558;48.242;11.654;2023-02-19T14:38:44;96873.88;;;10.56;100.00
62510;BME280;48558;48.242;11.654;2023-02-19T14:42:59;96875.00;;;10.25;100.00
62510;BME280;48558;48.242;11.654;2023-02-19T14:47:24;96891.06;;;10.17;100.00
62510;BME280;48558;48.242;11.654;2023-02-19T14:51:40;96884.63;;;10.20;100.00
62510;BME280;48558;48.242;11.654;2023-02-19T14:55:55;96890.91;;;10.21;100.00
62510;BME280;48558;48.242;11.654;2023-02-19T15:00:26;96890.22;;;10.42;99.76
62510;BME280;48558;48.242;11.654;2023-02-19T15:04:40;96885.63;;;10.26;100.00
62510;BME280;48558;48.242;11.654;2023-02-19T15:08:57;96867.94;;;10.24;100.00
62510;BME280;48558;48.242;11.654;2023-02-19T15:13:19;96903.94;;;10.20;100.00
62510;BME280;48558;48.242;11.654;2023-02-19T15:17:38;96903.69;;;10.40;100.00
62510;BME280;48558;48.242;11.654;2023-02-19T15:21:52;96919.41;;;10.30;100.00
62510;BME280;48558;48.242;11.654;2023-02-19T15:26:20;96931.00;;;10.25;100.00
62510;BME280;48558;48.242;11.654;2023-02-19T15:30:34;96922.00;;;10.12;100.00
62510;BME280;48558;48.242;11.654;2023-02-19T15:34:57;96939.09;;;10.20;100.00
62510;BME280;48558;48.242;11.654;2023-02-19T15:39:16;96936.56;;;10.13;100.00
62510;BME280;48558;48.242;11.654;2023-02-19T15:47:59;96934.38;;;9.95;100.00
62510;BME280;48558;48.242;11.654;2023-02-19T15:57:14;96929.50;;;9.74;100.00
62510;BME280;48558;48.242;11.654;2023-02-19T16:01:32;96934.59;;;9.63;100.00
62510;BME280;48558;48.242;11.654;2023-02-19T16:06:20;96939.78;;;9.61;100.00
62510;BME280;48558;48.242;11.654;2023-02-19T16:10:34;96934.09;;;9.39;100.00
62510;BME280;48558;48.242;11.654;2023-02-19T16:14:46;96935.53;;;9.31;100.00
62510;BME280;48558;48.242;11.654;2023-02-19T16:19:00;96948.81;;;9.07;100.00
62510;BME280;48558;48.242;11.654;2023-02-19T16:23:14;96946.72;;;8.99;100.00
62510;BME280;48558;48.242;11.654;2023-02-19T16:27:39;96947.88;;;8.85;100.00
62510;BME280;48558;48.242;11.654;2023-02-19T16:31:58;96960.13;;;8.84;100.00
62510;BME280;48558;48.242;11.654;2023-02-19T16:44:56;96978.69;;;8.51;100.00
62510;BME280;48558;48.242;11.654;2023-02-19T16:49:09;96996.16;;;8.45;100.00
62510;BME280;48558;48.242;11.654;2023-02-19T16:53:23;96995.84;;;8.27;100.00
62510;BME280;48558;48.242;11.654;2023-02-19T16:57:36;97001.03;;;8.21;100.00
62510;BME280;48558;48.242;11.654;2023-02-19T17:01:48;97002.31;;;8.17;100.00
62510;BME280;48558;48.242;11.654;2023-02-19T17:06:01;97020.66;;;8.23;100.00
62510;BME280;48558;48.242;11.654;2023-02-19T17:10:19;97016.72;;;8.24;100.00
62510;BME280;48558;48.242;11.654;2023-02-19T17:14:34;97019.31;;;8.31;100.00
62510;BME280;48558;48.242;11.654;2023-02-19T17:18:46;97015.56;;;8.06;100.00
62510;BME280;48558;48.242;11.654;2023-02-19T17:22:59;97026.56;;;8.06;100.00
62510;BME280;48558;48.242;11.654;2023-02-19T17:27:12;97028.75;;;7.98;100.00
62510;BME280;48558;48.242;11.654;2023-02-19T17:31:25;97026.16;;;8.07;100.00
62510;BME280;48558;48.242;11.654;2023-02-19T17:35:38;97052.81;;;8.10;100.00
62510;BME280;48558;48.242;11.654;2023-02-19T17:39:51;97047.91;;;8.02;100.00
62510;BME280;48558;48.242;11.654;2023-02-19T17:44:03;97041.56;;;8.05;100.00
62510;BME280;48558;48.242;11.654;2023-02-19T17:48:16;97050.25;;;8.19;100.00
62510;BME280;48558;48.242;11.654;2023-02-19T17:52:28;97068.69;;;8.22;100.00
62510;BME280;48558;48.242;11.654;2023-02-19T17:56:41;97073.84;;;8.20;100.00
62510;BME280;48558;48.242;11.654;2023-02-19T18:00:57;97081.28;;;8.39;100.00
62510;BME280;48558;48.242;11.654;2023-02-19T18:05:10;97087.66;;;8.36;100.00
62510;BME280;48558;48.242;11.654;2023-02-19T18:09:22;97094.69;;;8.37;100.00
62510;BME280;48558;48.242;11.654;2023-02-19T18:13:35;97104.59;;;8.35;100.00
62510;BME280;48558;48.242;11.654;2023-02-19T18:17:47;97108.06;;;8.39;100.00
62510;BME280;48558;48.242;11.654;2023-02-19T18:22:01;97125.00;;;8.37;100.00
62510;BME280;48558;48.242;11.654;2023-02-19T18:26:20;97134.56;;;8.49;100.00
62510;BME280;48558;48.242;11.654;2023-02-19T18:30:33;97141.50;;;8.37;100.00
62510;BME280;48558;48.242;11.654;2023-02-19T18:34:50;97141.69;;;8.46;100.00
62510;BME280;48558;48.242;11.654;2023-02-19T18:39:06;97139.44;;;8.41;100.00
62510;BME280;48558;48.242;11.654;2023-02-19T18:43:18;97143.16;;;8.35;100.00
62510;BME280;48558;48.242;11.654;2023-02-19T18:47:31;97148.94;;;8.40;100.00
62510;BME280;48558;48.242;11.654;2023-02-19T18:51:48;97150.72;;;8.31;100.00
62510;BME280;48558;48.242;11.654;2023-02-19T18:56:01;97162.34;;;8.38;100.00
62510;BME280;48558;48.242;11.654;2023-02-19T19:00:18;97163.69;;;8.30;100.00
62510;BME280;48558;48.242;11.654;2023-02-19T19:04:35;97163.78;;;8.27;100.00
62510;BME280;48558;48.242;11.654;2023-02-19T19:08:53;97161.81;;;8.27;100.00
62510;BME280;48558;48.242;11.654;2023-02-19T19:13:05;97161.66;;;8.34;100.00
62510;BME280;48558;48.242;11.654;2023-02-19T19:17:18;97166.31;;;8.37;100.00
62510;BME280;48558;48.242;11.654;2023-02-19T19:21:31;97166.44;;;8.30;100.00
62510;BME280;48558;48.242;11.654;2023-02-19T19:25:43;97162.84;;;8.33;100.00
62510;BME280;48558;48.242;11.654;2023-02-19T19:29:56;97164.25;;;8.22;100.00
62510;BME280;48558;48.242;11.654;2023-02-19T19:34:09;97170.84;;;8.28;100.00
62510;BME280;48558;48.242;11.654;2023-02-19T19:38:22;97178.34;;;8.27;100.00
62510;BME280;48558;48.242;11.654;2023-02-19T19:42:35;97167.25;;;8.11;100.00
62510;BME280;48558;48.242;11.654;2023-02-19T19:46:48;97165.97;;;8.16;100.00
62510;BME280;48558;48.242;11.654;2023-02-19T19:51:01;97162.53;;;8.12;100.00
62510;BME280;48558;48.242;11.654;2023-02-19T19:55:13;97155.16;;;8.05;100.00
62510;BME280;48558;48.242;11.654;2023-02-19T19:59:27;97169.78;;;8.02;100.00
62510;BME280;48558;48.242;11.654;2023-02-19T20:03:39;97164.44;;;7.95;100.00
62510;BME280;48558;48.242;11.654;2023-02-19T20:07:53;97183.41;;;8.09;100.00
62510;BME280;48558;48.242;11.654;2023-02-19T20:12:06;97177.19;;;8.05;100.00
62510;BME280;48558;48.242;11.654;2023-02-19T20:16:26;97181.84;;;8.08;100.00
62510;BME280;48558;48.242;11.654;2023-02-19T20:20:39;97176.56;;;7.97;100.00
62510;BME280;48558;48.242;11.654;2023-02-19T20:24:53;97183.47;;;8.06;100.00
62510;BME280;48558;48.242;11.654;2023-02-19T20:29:06;97188.97;;;8.06;100.00
62510;BME280;48558;48.242;11.654;2023-02-19T20:33:29;97189.97;;;7.95;100.00
62510;BME280;48558;48.242;11.654;2023-02-19T20:37:42;97180.25;;;7.91;100.00
62510;BME280;48558;48.242;11.654;2023-02-19T20:41:56;97180.59;;;7.93;100.00
62510;BME280;48558;48.242;11.654;2023-02-19T20:46:09;97180.47;;;8.00;100.00
62510;BME280;48558;48.242;11.654;2023-02-19T20:50:23;97183.41;;;7.89;100.00
62510;BME280;48558;48.242;11.654;2023-02-19T20:54:36;97195.97;;;7.90;100.00
62510;BME280;48558;48.242;11.654;2023-02-19T20:58:49;97192.78;;;7.92;100.00
62510;BME280;48558;48.242;11.654;2023-02-19T21:03:01;97194.69;;;7.95;100.00
62510;BME280;48558;48.242;11.654;2023-02-19T21:07:15;97201.47;;;7.90;100.00
62510;BME280;48558;48.242;11.654;2023-02-19T21:11:37;97197.72;;;7.81;100.00
62510;BME280;48558;48.242;11.654;2023-02-19T21:15:51;97193.13;;;7.74;100.00
62510;BME280;48558;48.242;11.654;2023-02-19T21:20:15;97207.47;;;7.85;100.00
62510;BME280;48558;48.242;11.654;2023-02-19T21:24:31;97206.81;;;7.78;100.00
62510;BME280;48558;48.242;11.654;2023-02-19T21:28:44;97211.47;;;7.81;100.00
62510;BME280;48558;48.242;11.654;2023-02-19T21:32:56;97185.59;;;7.78;100.00
62510;BME280;48558;48.242;11.654;2023-02-19T21:37:19;97192.56;;;7.83;100.00
62510;BME280;48558;48.242;11.654;2023-02-19T21:41:31;97191.16;;;7.75;100.00
62510;BME280;48558;48.242;11.654;2023-02-19T21:45:44;97194.97;;;7.81;100.00
62510;BME280;48558;48.242;11.654;2023-02-19T21:49:57;97195.31;;;7.83;100.00
62510;BME280;48558;48.242;11.654;2023-02-19T21:54:20;97182.13;;;7.94;100.00
62510;BME280;48558;48.242;11.654;2023-02-19T21:58:35;97181.44;;;7.90;100.00
62510;BME280;48558;48.242;11.654;2023-02-19T22:02:49;97174.44;;;7.85;100.00
62510;BME280;48558;48.242;11.654;2023-02-19T22:07:01;97170.50;;;7.86;100.00
62510;BME280;48558;48.242;11.654;2023-02-19T22:11:14;97188.19;;;7.85;100.00
62510;BME280;48558;48.242;11.654;2023-02-19T22:15:26;97191.94;;;7.95;100.00
62510;BME280;48558;48.242;11.654;2023-02-19T22:19:39;97178.91;;;7.79;100.00
62510;BME280;48558;48.242;11.654;2023-02-19T22:23:52;97191.25;;;7.91;100.00
62510;BME280;48558;48.242;11.654;2023-02-19T22:28:05;97191.03;;;7.82;100.00
62510;BME280;48558;48.242;11.654;2023-02-19T22:32:18;97204.16;;;7.94;100.00
62510;BME280;48558;48.242;11.654;2023-02-19T22:36:33;97212.53;;;7.87;100.00
62510;BME280;48558;48.242;11.654;2023-02-19T22:40:48;97218.78;;;7.91;100.00
62510;BME280;48558;48.242;11.654;2023-02-19T22:45:00;97215.59;;;7.92;100.00
62510;BME280;48558;48.242;11.654;2023-02-19T22:49:13;97209.88;;;7.83;100.00
62510;BME280;48558;48.242;11.654;2023-02-19T22:53:26;97211.06;;;7.82;100.00
62510;BME280;48558;48.242;11.654;2023-02-19T22:57:39;97216.97;;;7.81;100.00
62510;BME280;48558;48.242;11.654;2023-02-19T23:01:52;97211.56;;;7.77;100.00
62510;BME280;48558;48.242;11.654;2023-02-19T23:06:04;97223.19;;;7.85;100.00
62510;BME280;48558;48.242;11.654;2023-02-19T23:10:17;97231.09;;;7.83;100.00
62510;BME280;48558;48.242;11.654;2023-02-19T23:14:29;97232.72;;;7.80;100.00
62510;BME280;48558;48.242;11.654;2023-02-19T23:18:42;97238.38;;;7.73;100.00
62510;BME280;48558;48.242;11.654;2023-02-19T23:22:54;97243.78;;;7.77;100.00
62510;BME280;48558;48.242;11.654;2023-02-19T23:27:07;97247.81;;;7.72;100.00
62510;BME280;48558;48.242;11.654;2023-02-19T23:31:20;97227.66;;;7.56;100.00
62510;BME280;48558;48.242;11.654;2023-02-19T23:35:33;97230.94;;;7.70;100.00
62510;BME280;48558;48.242;11.654;2023-02-19T23:39:45;97240.13;;;7.64;100.00
62510;BME280;48558;48.242;11.654;2023-02-19T23:43:57;97248.94;;;7.75;100.00
62510;BME280;48558;48.242;11.654;2023-02-19T23:48:10;97250.47;;;7.76;100.00
62510;BME280;48558;48.242;11.654;2023-02-19T23:52:22;97241.03;;;7.77;100.00
62510;BME280;48558;48.242;11.654;2023-02-19T23:56:35;97236.72;;;7.76;100.00
